Portada
METAR-TAF:

METAR-TAF

Aeroports :

Aeroport de Lampedusa

Lampedusa, Itàlia

latitud: 35-30N, longitud: 012-36E, altitud: 16 m

Observació

L'informe es va fer fa 27 minuts, a les 08:50 UTC
Vent 14 kt del Nord
Temperatura 27°C
Humitat 66%
Pressió 1020 hPa
Visibilitat 10 km o més
sense núvols per sota de 1500 mi sense presència de cumulonimbus.

METAR: LICD 250850Z 36014KT CAVOK 27/20 Q1020

Hora: 11:17 (09:17 UTC)

Pronòstic

L'informe es va fer fa 4 hores i 17 minuts, a les 05:00 UTC
Pronòstic vàlid del 25 a les 06 UTC al 26 a les 06 UTC
Vent 18 kt del Nord
Visibilitat 10 km o més
Núvols disperses a una alçada de 3000 ft
Evolucionant progressivament
l' 25 a les 12 UTC al 25 a les 14 UTC
Vent 8 kt del Nord
Evolucionant progressivament
l' 25 a les 18 UTC al 25 a les 20 UTC
Vent 12 kt del Est
Temporalment
l' 26 a les 00 UTC al 26 a les 06 UTC
Visibilitat: 4000 m
tempesta, pluja

TAF: LICD 250500Z 2506/2606 35018KT 9999 SCT030 BECMG 2512/2514 01008KT BECMG 2518/2520 09012KT TEMPO 2600/2606 4000 TSRA

Observacions i pronòstics meteorològics de més de 4000 aeroports (METAR i TAF).

Les estacions disponibles són els punts grocs i vermells al mapa.

Posi el ratolí al punt desitjat per veure el nom de l'estació.

Feu clic per veure les observacions i els pronòstics meteorològics.

Per canviar el mapa: feu clic els botons verds amb una creu de color negre per apropar; al botó verd amb un guió per allunyar la imatge; o en les fletxes verdes per a mapes adjacents.


METAR-TAF: